sensor_id;sensor_type;location;lat;lon;timestamp;P1;P2;P0
47079;PMS5003;33067;49.296;14.470;2023-11-18T00:01:26;16;16;
47079;PMS5003;33067;49.296;14.470;2023-11-18T00:03:51;14;14;
47079;PMS5003;33067;49.296;14.470;2023-11-18T00:06:16;17;17;
47079;PMS5003;33067;49.296;14.470;2023-11-18T00:08:42;16;12;
47079;PMS5003;33067;49.296;14.470;2023-11-18T00:11:07;16;14;
47079;PMS5003;33067;49.296;14.470;2023-11-18T00:13:33;19;19;
47079;PMS5003;33067;49.296;14.470;2023-11-18T00:15:58;14;14;
47079;PMS5003;33067;49.296;14.470;2023-11-18T00:18:24;18;18;
47079;PMS5003;33067;49.296;14.470;2023-11-18T00:20:50;12;11;
47079;PMS5003;33067;49.296;14.470;2023-11-18T00:23:15;15;14;
47079;PMS5003;33067;49.296;14.470;2023-11-18T00:25:41;12;12;
47079;PMS5003;33067;49.296;14.470;2023-11-18T00:28:06;14;14;
47079;PMS5003;33067;49.296;14.470;2023-11-18T00:30:32;12;12;
47079;PMS5003;33067;49.296;14.470;2023-11-18T00:32:58;17;11;
47079;PMS5003;33067;49.296;14.470;2023-11-18T00:35:23;12;11;
47079;PMS5003;33067;49.296;14.470;2023-11-18T00:37:49;12;11;
47079;PMS5003;33067;49.296;14.470;2023-11-18T00:40:14;17;12;
47079;PMS5003;33067;49.296;14.470;2023-11-18T00:42:39;11;11;
47079;PMS5003;33067;49.296;14.470;2023-11-18T00:45:05;11;11;
47079;PMS5003;33067;49.296;14.470;2023-11-18T00:47:31;11;8;
47079;PMS5003;33067;49.296;14.470;2023-11-18T00:49:56;14;11;
47079;PMS5003;33067;49.296;14.470;2023-11-18T00:52:22;11;11;
47079;PMS5003;33067;49.296;14.470;2023-11-18T00:54:47;15;14;
47079;PMS5003;33067;49.296;14.470;2023-11-18T00:57:13;14;8;
47079;PMS5003;33067;49.296;14.470;2023-11-18T00:59:41;10;8;
47079;PMS5003;33067;49.296;14.470;2023-11-18T01:02:04;11;11;
47079;PMS5003;33067;49.296;14.470;2023-11-18T01:04:30;11;11;
47079;PMS5003;33067;49.296;14.470;2023-11-18T01:06:55;12;11;
47079;PMS5003;33067;49.296;14.470;2023-11-18T01:09:21;11;11;
47079;PMS5003;33067;49.296;14.470;2023-11-18T01:11:46;12;12;
47079;PMS5003;33067;49.296;14.470;2023-11-18T01:14:12;12;12;
47079;PMS5003;33067;49.296;14.470;2023-11-18T01:16:37;14;11;
47079;PMS5003;33067;49.296;14.470;2023-11-18T01:19:03;12;12;
47079;PMS5003;33067;49.296;14.470;2023-11-18T01:21:28;14;12;
47079;PMS5003;33067;49.296;14.470;2023-11-18T01:23:54;10;7;
47079;PMS5003;33067;49.296;14.470;2023-11-18T01:26:19;12;12;
47079;PMS5003;33067;49.296;14.470;2023-11-18T01:28:45;7;7;
47079;PMS5003;33067;49.296;14.470;2023-11-18T01:31:10;10;10;
47079;PMS5003;33067;49.296;14.470;2023-11-18T01:33:36;10;10;
47079;PMS5003;33067;49.296;14.470;2023-11-18T01:36:01;14;11;
47079;PMS5003;33067;49.296;14.470;2023-11-18T01:38:27;6;6;
47079;PMS5003;33067;49.296;14.470;2023-11-18T01:40:53;12;12;
47079;PMS5003;33067;49.296;14.470;2023-11-18T01:43:18;12;11;
47079;PMS5003;33067;49.296;14.470;2023-11-18T01:45:44;12;10;
47079;PMS5003;33067;49.296;14.470;2023-11-18T01:48:10;19;16;
47079;PMS5003;33067;49.296;14.470;2023-11-18T01:50:35;17;15;
47079;PMS5003;33067;49.296;14.470;2023-11-18T01:53:01;14;14;
47079;PMS5003;33067;49.296;14.470;2023-11-18T01:55:26;15;12;
47079;PMS5003;33067;49.296;14.470;2023-11-18T01:57:52;15;11;
47079;PMS5003;33067;49.296;14.470;2023-11-18T02:00:17;15;14;
47079;PMS5003;33067;49.296;14.470;2023-11-18T02:02:43;10;10;
47079;PMS5003;33067;49.296;14.470;2023-11-18T02:05:08;12;12;
47079;PMS5003;33067;49.296;14.470;2023-11-18T02:07:34;10;10;
47079;PMS5003;33067;49.296;14.470;2023-11-18T02:10:00;10;10;
47079;PMS5003;33067;49.296;14.470;2023-11-18T02:12:26;12;10;
47079;PMS5003;33067;49.296;14.470;2023-11-18T02:14:51;11;11;
47079;PMS5003;33067;49.296;14.470;2023-11-18T02:17:22;11;11;
47079;PMS5003;33067;49.296;14.470;2023-11-18T02:19:42;10;10;
47079;PMS5003;33067;49.296;14.470;2023-11-18T02:22:08;11;10;
47079;PMS5003;33067;49.296;14.470;2023-11-18T02:24:33;10;8;
47079;PMS5003;33067;49.296;14.470;2023-11-18T02:26:59;12;11;
47079;PMS5003;33067;49.296;14.470;2023-11-18T02:29:25;10;7;
47079;PMS5003;33067;49.296;14.470;2023-11-18T02:31:51;14;11;
47079;PMS5003;33067;49.296;14.470;2023-11-18T02:34:16;10;8;
47079;PMS5003;33067;49.296;14.470;2023-11-18T02:36:42;11;10;
47079;PMS5003;33067;49.296;14.470;2023-11-18T02:39:16;14;14;
47079;PMS5003;33067;49.296;14.470;2023-11-18T02:41:32;7;7;
47079;PMS5003;33067;49.296;14.470;2023-11-18T02:43:58;11;11;
47079;PMS5003;33067;49.296;14.470;2023-11-18T02:46:23;10;8;
47079;PMS5003;33067;49.296;14.470;2023-11-18T02:48:49;10;7;
47079;PMS5003;33067;49.296;14.470;2023-11-18T02:51:14;10;8;
47079;PMS5003;33067;49.296;14.470;2023-11-18T02:53:40;10;7;
47079;PMS5003;33067;49.296;14.470;2023-11-18T02:56:07;7;7;
47079;PMS5003;33067;49.296;14.470;2023-11-18T02:58:31;7;7;
47079;PMS5003;33067;49.296;14.470;2023-11-18T03:00:57;11;11;
47079;PMS5003;33067;49.296;14.470;2023-11-18T03:03:22;6;6;
47079;PMS5003;33067;49.296;14.470;2023-11-18T03:05:48;8;8;
47079;PMS5003;33067;49.296;14.470;2023-11-18T03:08:13;7;7;
47079;PMS5003;33067;49.296;14.470;2023-11-18T03:13:01;8;7;
47079;PMS5003;33067;49.296;14.470;2023-11-18T03:15:25;11;11;
47079;PMS5003;33067;49.296;14.470;2023-11-18T03:17:51;10;10;
47079;PMS5003;33067;49.296;14.470;2023-11-18T03:20:16;13;12;
47079;PMS5003;33067;49.296;14.470;2023-11-18T03:22:42;10;7;
47079;PMS5003;33067;49.296;14.470;2023-11-18T03:25:07;12;10;
47079;PMS5003;33067;49.296;14.470;2023-11-18T03:27:35;10;10;
47079;PMS5003;33067;49.296;14.470;2023-11-18T03:29:58;12;10;
47079;PMS5003;33067;49.296;14.470;2023-11-18T03:32:24;7;7;
47079;PMS5003;33067;49.296;14.470;2023-11-18T03:34:49;11;11;
47079;PMS5003;33067;49.296;14.470;2023-11-18T03:37:15;11;11;
47079;PMS5003;33067;49.296;14.470;2023-11-18T03:39:40;12;12;
47079;PMS5003;33067;49.296;14.470;2023-11-18T03:42:06;7;7;
47079;PMS5003;33067;49.296;14.470;2023-11-18T03:44:31;10;10;
47079;PMS5003;33067;49.296;14.470;2023-11-18T03:46:57;8;8;
47079;PMS5003;33067;49.296;14.470;2023-11-18T03:49:22;10;8;
47079;PMS5003;33067;49.296;14.470;2023-11-18T03:51:48;11;11;
47079;PMS5003;33067;49.296;14.470;2023-11-18T03:54:13;12;11;
47079;PMS5003;33067;49.296;14.470;2023-11-18T03:56:39;10;10;
47079;PMS5003;33067;49.296;14.470;2023-11-18T03:59:04;10;7;
47079;PMS5003;33067;49.296;14.470;2023-11-18T04:01:30;10;10;
47079;PMS5003;33067;49.296;14.470;2023-11-18T04:03:58;11;10;
47079;PMS5003;33067;49.296;14.470;2023-11-18T04:06:21;7;6;
47079;PMS5003;33067;49.296;14.470;2023-11-18T04:08:47;8;8;
47079;PMS5003;33067;49.296;14.470;2023-11-18T04:11:12;10;10;
47079;PMS5003;33067;49.296;14.470;2023-11-18T04:13:38;12;10;
47079;PMS5003;33067;49.296;14.470;2023-11-18T04:16:04;10;10;
47079;PMS5003;33067;49.296;14.470;2023-11-18T04:18:29;10;10;
47079;PMS5003;33067;49.296;14.470;2023-11-18T04:20:54;8;7;
47079;PMS5003;33067;49.296;14.470;2023-11-18T04:23:20;8;8;
47079;PMS5003;33067;49.296;14.470;2023-11-18T04:25:45;11;11;
47079;PMS5003;33067;49.296;14.470;2023-11-18T04:28:11;19;15;
47079;PMS5003;33067;49.296;14.470;2023-11-18T04:30:36;15;14;
47079;PMS5003;33067;49.296;14.470;2023-11-18T04:33:02;14;12;
47079;PMS5003;33067;49.296;14.470;2023-11-18T04:35:28;15;15;
47079;PMS5003;33067;49.296;14.470;2023-11-18T04:37:53;11;11;
47079;PMS5003;33067;49.296;14.470;2023-11-18T04:40:19;10;10;
47079;PMS5003;33067;49.296;14.470;2023-11-18T04:42:44;12;10;
47079;PMS5003;33067;49.296;14.470;2023-11-18T04:45:10;13;12;
47079;PMS5003;33067;49.296;14.470;2023-11-18T04:47:35;10;10;
47079;PMS5003;33067;49.296;14.470;2023-11-18T04:50:01;11;10;
47079;PMS5003;33067;49.296;14.470;2023-11-18T04:52:26;7;7;
47079;PMS5003;33067;49.296;14.470;2023-11-18T04:54:52;10;7;
47079;PMS5003;33067;49.296;14.470;2023-11-18T04:57:17;12;10;
47079;PMS5003;33067;49.296;14.470;2023-11-18T04:59:43;11;8;
47079;PMS5003;33067;49.296;14.470;2023-11-18T05:02:08;7;7;
47079;PMS5003;33067;49.296;14.470;2023-11-18T05:04:34;12;12;
47079;PMS5003;33067;49.296;14.470;2023-11-18T05:07:00;8;8;
47079;PMS5003;33067;49.296;14.470;2023-11-18T05:09:25;15;11;
47079;PMS5003;33067;49.296;14.470;2023-11-18T05:11:51;12;11;
47079;PMS5003;33067;49.296;14.470;2023-11-18T05:14:16;15;12;
47079;PMS5003;33067;49.296;14.470;2023-11-18T05:16:41;14;12;
47079;PMS5003;33067;49.296;14.470;2023-11-18T05:19:07;9;9;
47079;PMS5003;33067;49.296;14.470;2023-11-18T05:21:32;10;10;
47079;PMS5003;33067;49.296;14.470;2023-11-18T05:23:58;12;10;
47079;PMS5003;33067;49.296;14.470;2023-11-18T05:26:24;8;8;
47079;PMS5003;33067;49.296;14.470;2023-11-18T05:28:49;15;10;
47079;PMS5003;33067;49.296;14.470;2023-11-18T05:31:15;8;8;
47079;PMS5003;33067;49.296;14.470;2023-11-18T05:33:40;11;10;
47079;PMS5003;33067;49.296;14.470;2023-11-18T05:36:06;11;10;
47079;PMS5003;33067;49.296;14.470;2023-11-18T05:38:31;10;10;
47079;PMS5003;33067;49.296;14.470;2023-11-18T05:40:57;10;10;
47079;PMS5003;33067;49.296;14.470;2023-11-18T05:43:23;15;11;
47079;PMS5003;33067;49.296;14.470;2023-11-18T05:45:48;12;11;
47079;PMS5003;33067;49.296;14.470;2023-11-18T05:48:13;8;8;
47079;PMS5003;33067;49.296;14.470;2023-11-18T05:50:39;11;10;
47079;PMS5003;33067;49.296;14.470;2023-11-18T05:53:04;11;8;
47079;PMS5003;33067;49.296;14.470;2023-11-18T05:55:30;10;10;
47079;PMS5003;33067;49.296;14.470;2023-11-18T05:57:56;17;12;
47079;PMS5003;33067;49.296;14.470;2023-11-18T06:00:21;17;15;
47079;PMS5003;33067;49.296;14.470;2023-11-18T06:02:46;11;10;
47079;PMS5003;33067;49.296;14.470;2023-11-18T06:05:12;15;15;
47079;PMS5003;33067;49.296;14.470;2023-11-18T06:07:38;7;7;
47079;PMS5003;33067;49.296;14.470;2023-11-18T06:10:03;10;10;
47079;PMS5003;33067;49.296;14.470;2023-11-18T06:12:29;11;11;
47079;PMS5003;33067;49.296;14.470;2023-11-18T06:14:54;16;11;
47079;PMS5003;33067;49.296;14.470;2023-11-18T06:17:19;15;14;
47079;PMS5003;33067;49.296;14.470;2023-11-18T06:19:45;15;12;
47079;PMS5003;33067;49.296;14.470;2023-11-18T06:22:10;10;10;
47079;PMS5003;33067;49.296;14.470;2023-11-18T06:24:36;11;10;
47079;PMS5003;33067;49.296;14.470;2023-11-18T06:27:02;10;10;
47079;PMS5003;33067;49.296;14.470;2023-11-18T06:29:27;12;11;
47079;PMS5003;33067;49.296;14.470;2023-11-18T06:31:53;11;11;
47079;PMS5003;33067;49.296;14.470;2023-11-18T06:34:18;14;14;
47079;PMS5003;33067;49.296;14.470;2023-11-18T06:36:44;14;12;
47079;PMS5003;33067;49.296;14.470;2023-11-18T06:39:09;11;11;
47079;PMS5003;33067;49.296;14.470;2023-11-18T06:41:35;14;14;
47079;PMS5003;33067;49.296;14.470;2023-11-18T06:44:00;10;10;
47079;PMS5003;33067;49.296;14.470;2023-11-18T06:46:27;11;11;
47079;PMS5003;33067;49.296;14.470;2023-11-18T06:48:52;13;13;
47079;PMS5003;33067;49.296;14.470;2023-11-18T06:51:16;14;12;
47079;PMS5003;33067;49.296;14.470;2023-11-18T06:53:42;12;12;
47079;PMS5003;33067;49.296;14.470;2023-11-18T06:56:07;11;11;
47079;PMS5003;33067;49.296;14.470;2023-11-18T06:58:33;9;9;
47079;PMS5003;33067;49.296;14.470;2023-11-18T07:00:58;17;14;
47079;PMS5003;33067;49.296;14.470;2023-11-18T07:03:23;14;14;
47079;PMS5003;33067;49.296;14.470;2023-11-18T07:05:49;17;16;
47079;PMS5003;33067;49.296;14.470;2023-11-18T07:08:14;15;12;
47079;PMS5003;33067;49.296;14.470;2023-11-18T07:10:40;24;22;
47079;PMS5003;33067;49.296;14.470;2023-11-18T07:13:05;13;12;
47079;PMS5003;33067;49.296;14.470;2023-11-18T07:15:31;24;22;
47079;PMS5003;33067;49.296;14.470;2023-11-18T07:17:57;19;17;
47079;PMS5003;33067;49.296;14.470;2023-11-18T07:20:22;12;11;
47079;PMS5003;33067;49.296;14.470;2023-11-18T07:22:47;30;27;
47079;PMS5003;33067;49.296;14.470;2023-11-18T07:25:13;26;25;
47079;PMS5003;33067;49.296;14.470;2023-11-18T07:27:38;29;25;
47079;PMS5003;33067;49.296;14.470;2023-11-18T07:30:04;21;21;
47079;PMS5003;33067;49.296;14.470;2023-11-18T07:32:29;21;20;
47079;PMS5003;33067;49.296;14.470;2023-11-18T07:34:55;15;13;
47079;PMS5003;33067;49.296;14.470;2023-11-18T07:37:20;20;16;
47079;PMS5003;33067;49.296;14.470;2023-11-18T07:39:46;29;27;
47079;PMS5003;33067;49.296;14.470;2023-11-18T07:42:11;40;35;
47079;PMS5003;33067;49.296;14.470;2023-11-18T07:44:37;19;17;
47079;PMS5003;33067;49.296;14.470;2023-11-18T07:47:02;12;12;
47079;PMS5003;33067;49.296;14.470;2023-11-18T07:49:27;16;16;
47079;PMS5003;33067;49.296;14.470;2023-11-18T07:51:53;18;17;
47079;PMS5003;33067;49.296;14.470;2023-11-18T07:54:18;22;22;
47079;PMS5003;33067;49.296;14.470;2023-11-18T07:56:44;25;22;
47079;PMS5003;33067;49.296;14.470;2023-11-18T07:59:10;27;23;
47079;PMS5003;33067;49.296;14.470;2023-11-18T08:01:35;25;25;
47079;PMS5003;33067;49.296;14.470;2023-11-18T08:04:00;28;24;
47079;PMS5003;33067;49.296;14.470;2023-11-18T08:06:26;29;27;
47079;PMS5003;33067;49.296;14.470;2023-11-18T08:08:51;17;16;
47079;PMS5003;33067;49.296;14.470;2023-11-18T08:11:17;29;27;
47079;PMS5003;33067;49.296;14.470;2023-11-18T08:13:42;34;32;
47079;PMS5003;33067;49.296;14.470;2023-11-18T08:16:08;45;40;
47079;PMS5003;33067;49.296;14.470;2023-11-18T08:18:34;35;31;
47079;PMS5003;33067;49.296;14.470;2023-11-18T08:20:59;40;36;
47079;PMS5003;33067;49.296;14.470;2023-11-18T08:23:25;32;30;
47079;PMS5003;33067;49.296;14.470;2023-11-18T08:25:51;27;24;
47079;PMS5003;33067;49.296;14.470;2023-11-18T08:28:17;20;20;
47079;PMS5003;33067;49.296;14.470;2023-11-18T08:30:43;26;24;
47079;PMS5003;33067;49.296;14.470;2023-11-18T08:33:08;35;31;
47079;PMS5003;33067;49.296;14.470;2023-11-18T08:35:34;21;21;
47079;PMS5003;33067;49.296;14.470;2023-11-18T08:37:59;20;16;
47079;PMS5003;33067;49.296;14.470;2023-11-18T08:40:25;32;29;
47079;PMS5003;33067;49.296;14.470;2023-11-18T08:42:51;25;25;
47079;PMS5003;33067;49.296;14.470;2023-11-18T08:45:16;18;17;
47079;PMS5003;33067;49.296;14.470;2023-11-18T08:47:42;22;19;
47079;PMS5003;33067;49.296;14.470;2023-11-18T08:50:07;15;15;
47079;PMS5003;33067;49.296;14.470;2023-11-18T08:52:32;48;44;
47079;PMS5003;33067;49.296;14.470;2023-11-18T08:54:58;21;20;
47079;PMS5003;33067;49.296;14.470;2023-11-18T08:57:23;26;26;
47079;PMS5003;33067;49.296;14.470;2023-11-18T08:59:49;31;26;
47079;PMS5003;33067;49.296;14.470;2023-11-18T09:02:14;16;16;
47079;PMS5003;33067;49.296;14.470;2023-11-18T09:04:40;16;16;
47079;PMS5003;33067;49.296;14.470;2023-11-18T09:07:06;16;16;
47079;PMS5003;33067;49.296;14.470;2023-11-18T09:09:31;20;20;
47079;PMS5003;33067;49.296;14.470;2023-11-18T09:11:57;24;20;
47079;PMS5003;33067;49.296;14.470;2023-11-18T09:14:23;20;18;
47079;PMS5003;33067;49.296;14.470;2023-11-18T09:16:48;27;25;
47079;PMS5003;33067;49.296;14.470;2023-11-18T09:19:13;21;18;
47079;PMS5003;33067;49.296;14.470;2023-11-18T09:21:38;24;22;
47079;PMS5003;33067;49.296;14.470;2023-11-18T09:24:05;21;21;
47079;PMS5003;33067;49.296;14.470;2023-11-18T09:26:30;17;17;
47079;PMS5003;33067;49.296;14.470;2023-11-18T09:28:55;45;40;
47079;PMS5003;33067;49.296;14.470;2023-11-18T09:31:20;31;27;
47079;PMS5003;33067;49.296;14.470;2023-11-18T09:33:45;22;21;
47079;PMS5003;33067;49.296;14.470;2023-11-18T09:36:11;49;46;
47079;PMS5003;33067;49.296;14.470;2023-11-18T09:38:37;32;31;
47079;PMS5003;33067;49.296;14.470;2023-11-18T09:41:02;52;48;
47079;PMS5003;33067;49.296;14.470;2023-11-18T09:43:28;31;28;
47079;PMS5003;33067;49.296;14.470;2023-11-18T09:45:54;35;35;
47079;PMS5003;33067;49.296;14.470;2023-11-18T09:48:19;82;64;
47079;PMS5003;33067;49.296;14.470;2023-11-18T09:50:44;75;70;
47079;PMS5003;33067;49.296;14.470;2023-11-18T09:53:10;25;22;
47079;PMS5003;33067;49.296;14.470;2023-11-18T09:55:37;25;25;
47079;PMS5003;33067;49.296;14.470;2023-11-18T09:58:02;26;23;
47079;PMS5003;33067;49.296;14.470;2023-11-18T10:00:26;31;28;
47079;PMS5003;33067;49.296;14.470;2023-11-18T10:02:51;16;16;
47079;PMS5003;33067;49.296;14.470;2023-11-18T10:05:17;68;63;
47079;PMS5003;33067;49.296;14.470;2023-11-18T10:07:43;29;25;
47079;PMS5003;33067;49.296;14.470;2023-11-18T10:10:08;25;20;
47079;PMS5003;33067;49.296;14.470;2023-11-18T10:12:34;21;21;
47079;PMS5003;33067;49.296;14.470;2023-11-18T10:14:58;30;28;
47079;PMS5003;33067;49.296;14.470;2023-11-18T10:17:24;40;36;
47079;PMS5003;33067;49.296;14.470;2023-11-18T10:19:50;23;23;
47079;PMS5003;33067;49.296;14.470;2023-11-18T10:22:18;31;28;
47079;PMS5003;33067;49.296;14.470;2023-11-18T10:24:43;18;18;
47079;PMS5003;33067;49.296;14.470;2023-11-18T10:27:06;26;22;
47079;PMS5003;33067;49.296;14.470;2023-11-18T10:29:32;18;16;
47079;PMS5003;33067;49.296;14.470;2023-11-18T10:34:23;19;18;
47079;PMS5003;33067;49.296;14.470;2023-11-18T10:39:13;29;28;
47079;PMS5003;33067;49.296;14.470;2023-11-18T10:41:39;23;23;
47079;PMS5003;33067;49.296;14.470;2023-11-18T10:44:05;16;16;
47079;PMS5003;33067;49.296;14.470;2023-11-18T10:46:29;21;19;
47079;PMS5003;33067;49.296;14.470;2023-11-18T10:48:55;36;32;
47079;PMS5003;33067;49.296;14.470;2023-11-18T10:51:21;29;27;
47079;PMS5003;33067;49.296;14.470;2023-11-18T10:53:47;24;21;
47079;PMS5003;33067;49.296;14.470;2023-11-18T10:56:17;22;22;
47079;PMS5003;33067;49.296;14.470;2023-11-18T10:58:37;18;18;
47079;PMS5003;33067;49.296;14.470;2023-11-18T11:01:03;18;18;
47079;PMS5003;33067;49.296;14.470;2023-11-18T11:03:29;26;19;
47079;PMS5003;33067;49.296;14.470;2023-11-18T11:05:54;12;12;
47079;PMS5003;33067;49.296;14.470;2023-11-18T11:08:19;31;27;
47079;PMS5003;33067;49.296;14.470;2023-11-18T11:10:45;22;18;
47079;PMS5003;33067;49.296;14.470;2023-11-18T11:13:10;19;19;
47079;PMS5003;33067;49.296;14.470;2023-11-18T11:15:38;22;18;
47079;PMS5003;33067;49.296;14.470;2023-11-18T11:18:02;27;23;
47079;PMS5003;33067;49.296;14.470;2023-11-18T11:20:25;18;18;
47079;PMS5003;33067;49.296;14.470;2023-11-18T11:22:54;23;21;
47079;PMS5003;33067;49.296;14.470;2023-11-18T11:25:16;32;25;
47079;PMS5003;33067;49.296;14.470;2023-11-18T11:27:41;28;21;
47079;PMS5003;33067;49.296;14.470;2023-11-18T11:30:08;21;21;
47079;PMS5003;33067;49.296;14.470;2023-11-18T11:32:35;22;21;
47079;PMS5003;33067;49.296;14.470;2023-11-18T11:35:00;27;23;
47079;PMS5003;33067;49.296;14.470;2023-11-18T11:37:23;30;28;
47079;PMS5003;33067;49.296;14.470;2023-11-18T11:39:48;28;25;
47079;PMS5003;33067;49.296;14.470;2023-11-18T11:42:14;25;22;
47079;PMS5003;33067;49.296;14.470;2023-11-18T11:44:39;20;19;
47079;PMS5003;33067;49.296;14.470;2023-11-18T11:47:05;28;24;
47079;PMS5003;33067;49.296;14.470;2023-11-18T11:49:31;26;23;
47079;PMS5003;33067;49.296;14.470;2023-11-18T11:51:56;20;19;
47079;PMS5003;33067;49.296;14.470;2023-11-18T11:54:21;30;25;
47079;PMS5003;33067;49.296;14.470;2023-11-18T11:56:46;25;23;
47079;PMS5003;33067;49.296;14.470;2023-11-18T11:59:11;25;24;
47079;PMS5003;33067;49.296;14.470;2023-11-18T12:01:36;19;18;
47079;PMS5003;33067;49.296;14.470;2023-11-18T12:04:02;24;23;
47079;PMS5003;33067;49.296;14.470;2023-11-18T12:06:27;28;28;
47079;PMS5003;33067;49.296;14.470;2023-11-18T12:08:53;25;25;
47079;PMS5003;33067;49.296;14.470;2023-11-18T12:11:18;22;19;
47079;PMS5003;33067;49.296;14.470;2023-11-18T12:16:08;26;26;
47079;PMS5003;33067;49.296;14.470;2023-11-18T12:18:33;26;24;
47079;PMS5003;33067;49.296;14.470;2023-11-18T12:20:59;17;15;
47079;PMS5003;33067;49.296;14.470;2023-11-18T12:23:24;16;13;
47079;PMS5003;33067;49.296;14.470;2023-11-18T12:25:50;22;18;
47079;PMS5003;33067;49.296;14.470;2023-11-18T12:28:15;20;19;
47079;PMS5003;33067;49.296;14.470;2023-11-18T12:30:41;20;20;
47079;PMS5003;33067;49.296;14.470;2023-11-18T12:33:05;18;15;
47079;PMS5003;33067;49.296;14.470;2023-11-18T12:35:31;18;18;
47079;PMS5003;33067;49.296;14.470;2023-11-18T12:38:09;43;38;
47079;PMS5003;33067;49.296;14.470;2023-11-18T12:40:24;24;21;
47079;PMS5003;33067;49.296;14.470;2023-11-18T12:45:22;19;17;
47079;PMS5003;33067;49.296;14.470;2023-11-18T12:47:37;21;20;
47079;PMS5003;33067;49.296;14.470;2023-11-18T12:50:06;23;23;
47079;PMS5003;33067;49.296;14.470;2023-11-18T12:52:28;17;15;
47079;PMS5003;33067;49.296;14.470;2023-11-18T12:54:54;19;19;
47079;PMS5003;33067;49.296;14.470;2023-11-18T12:57:20;17;15;
47079;PMS5003;33067;49.296;14.470;2023-11-18T12:59:45;17;15;
47079;PMS5003;33067;49.296;14.470;2023-11-18T13:02:10;17;14;
47079;PMS5003;33067;49.296;14.470;2023-11-18T13:04:36;18;14;
47079;PMS5003;33067;49.296;14.470;2023-11-18T13:07:01;23;20;
47079;PMS5003;33067;49.296;14.470;2023-11-18T13:09:27;17;17;
47079;PMS5003;33067;49.296;14.470;2023-11-18T13:11:52;13;11;
47079;PMS5003;33067;49.296;14.470;2023-11-18T13:14:17;19;16;
47079;PMS5003;33067;49.296;14.470;2023-11-18T13:16:43;17;17;
47079;PMS5003;33067;49.296;14.470;2023-11-18T13:19:08;14;13;
47079;PMS5003;33067;49.296;14.470;2023-11-18T13:21:34;24;24;
47079;PMS5003;33067;49.296;14.470;2023-11-18T13:23:59;15;15;
47079;PMS5003;33067;49.296;14.470;2023-11-18T13:26:24;20;17;
47079;PMS5003;33067;49.296;14.470;2023-11-18T13:28:49;25;23;
47079;PMS5003;33067;49.296;14.470;2023-11-18T13:31:15;26;21;
47079;PMS5003;33067;49.296;14.470;2023-11-18T13:33:40;34;26;
47079;PMS5003;33067;49.296;14.470;2023-11-18T13:36:06;30;26;
47079;PMS5003;33067;49.296;14.470;2023-11-18T13:38:32;40;36;
47079;PMS5003;33067;49.296;14.470;2023-11-18T13:40:56;35;29;
47079;PMS5003;33067;49.296;14.470;2023-11-18T13:43:22;40;32;
47079;PMS5003;33067;49.296;14.470;2023-11-18T13:45:50;29;24;
47079;PMS5003;33067;49.296;14.470;2023-11-18T13:48:13;26;25;
47079;PMS5003;33067;49.296;14.470;2023-11-18T13:50:40;20;20;
47079;PMS5003;33067;49.296;14.470;2023-11-18T13:53:03;31;27;
47079;PMS5003;33067;49.296;14.470;2023-11-18T13:55:29;25;20;
47079;PMS5003;33067;49.296;14.470;2023-11-18T13:57:55;18;18;
47079;PMS5003;33067;49.296;14.470;2023-11-18T14:00:21;19;19;
47079;PMS5003;33067;49.296;14.470;2023-11-18T14:02:46;13;10;
47079;PMS5003;33067;49.296;14.470;2023-11-18T14:05:15;12;12;
47079;PMS5003;33067;49.296;14.470;2023-11-18T14:07:37;9;8;
47079;PMS5003;33067;49.296;14.470;2023-11-18T14:10:02;9;9;
47079;PMS5003;33067;49.296;14.470;2023-11-18T14:12:27;13;13;
47079;PMS5003;33067;49.296;14.470;2023-11-18T14:14:52;15;14;
47079;PMS5003;33067;49.296;14.470;2023-11-18T14:17:17;15;13;
47079;PMS5003;33067;49.296;14.470;2023-11-18T14:19:43;12;12;
47079;PMS5003;33067;49.296;14.470;2023-11-18T14:22:08;13;12;
47079;PMS5003;33067;49.296;14.470;2023-11-18T14:24:33;18;18;
47079;PMS5003;33067;49.296;14.470;2023-11-18T14:26:58;20;20;
47079;PMS5003;33067;49.296;14.470;2023-11-18T14:29:24;16;14;
47079;PMS5003;33067;49.296;14.470;2023-11-18T14:31:49;14;14;
47079;PMS5003;33067;49.296;14.470;2023-11-18T14:34:14;18;18;
47079;PMS5003;33067;49.296;14.470;2023-11-18T14:36:40;20;19;
47079;PMS5003;33067;49.296;14.470;2023-11-18T14:39:05;14;13;
47079;PMS5003;33067;49.296;14.470;2023-11-18T14:41:30;13;9;
47079;PMS5003;33067;49.296;14.470;2023-11-18T14:43:56;14;14;
47079;PMS5003;33067;49.296;14.470;2023-11-18T14:46:21;14;14;
47079;PMS5003;33067;49.296;14.470;2023-11-18T14:48:46;14;13;
47079;PMS5003;33067;49.296;14.470;2023-11-18T14:51:11;12;10;
47079;PMS5003;33067;49.296;14.470;2023-11-18T14:53:37;20;19;
47079;PMS5003;33067;49.296;14.470;2023-11-18T14:56:02;18;18;
47079;PMS5003;33067;49.296;14.470;2023-11-18T14:58:28;20;18;
47079;PMS5003;33067;49.296;14.470;2023-11-18T15:00:53;20;20;
47079;PMS5003;33067;49.296;14.470;2023-11-18T15:03:19;32;26;
47079;PMS5003;33067;49.296;14.470;2023-11-18T15:05:44;16;14;
47079;PMS5003;33067;49.296;14.470;2023-11-18T15:08:09;28;26;
47079;PMS5003;33067;49.296;14.470;2023-11-18T15:10:35;37;30;
47079;PMS5003;33067;49.296;14.470;2023-11-18T15:13:01;61;53;
47079;PMS5003;33067;49.296;14.470;2023-11-18T15:15:27;37;31;
47079;PMS5003;33067;49.296;14.470;2023-11-18T15:17:51;26;24;
47079;PMS5003;33067;49.296;14.470;2023-11-18T15:20:17;30;26;
47079;PMS5003;33067;49.296;14.470;2023-11-18T15:22:42;21;21;
47079;PMS5003;33067;49.296;14.470;2023-11-18T15:25:08;32;27;
47079;PMS5003;33067;49.296;14.470;2023-11-18T15:27:33;25;21;
47079;PMS5003;33067;49.296;14.470;2023-11-18T15:29:58;23;20;
47079;PMS5003;33067;49.296;14.470;2023-11-18T15:32:23;27;27;
47079;PMS5003;33067;49.296;14.470;2023-11-18T15:34:48;21;19;
47079;PMS5003;33067;49.296;14.470;2023-11-18T15:37:14;33;27;
47079;PMS5003;33067;49.296;14.470;2023-11-18T15:39:39;32;32;
47079;PMS5003;33067;49.296;14.470;2023-11-18T15:42:05;54;52;
47079;PMS5003;33067;49.296;14.470;2023-11-18T15:44:30;67;60;
47079;PMS5003;33067;49.296;14.470;2023-11-18T15:46:56;76;69;
47079;PMS5003;33067;49.296;14.470;2023-11-18T15:49:21;180;158;
47079;PMS5003;33067;49.296;14.470;2023-11-18T15:51:46;153;139;
47079;PMS5003;33067;49.296;14.470;2023-11-18T15:54:12;107;103;
47079;PMS5003;33067;49.296;14.470;2023-11-18T15:56:38;99;96;
47079;PMS5003;33067;49.296;14.470;2023-11-18T15:59:04;149;129;
47079;PMS5003;33067;49.296;14.470;2023-11-18T16:01:29;51;48;
47079;PMS5003;33067;49.296;14.470;2023-11-18T16:03:54;68;61;